Terminal Aerodrome Forecast
Issued by NWS

Home | Current Version | Previous Version | Text Only | Print | Product List | Glossary On
Versions: 1 2 3 4 5 6 7 8 9 10 11 12 13 14 15 16 17
000
FTUS45 KRIW 222300
TAFBPI
TAF
KBPI 222327Z 2300/2324 14007KT P6SM -SHRA BKN035
     FM231600 15005KT P6SM VCSH SCT030 BKN060
     FM231800 VRB05KT P6SM VCTS SCT030CB BKN060=

USA.gov is the U.S. government's official web portal to all federal, state and local government web resources and services.